sensor_id;sensor_type;location;lat;lon;timestamp;temperature;humidity
69281;SHT31;56392;51.082;17.080;2023-05-10T00:01:19;11.32;54.63
69281;SHT31;56392;51.082;17.080;2023-05-10T00:06:42;11.31;54.38
69281;SHT31;56392;51.082;17.080;2023-05-10T00:12:06;11.27;54.55
69281;SHT31;56392;51.082;17.080;2023-05-10T00:17:29;11.21;54.81
69281;SHT31;56392;51.082;17.080;2023-05-10T00:22:52;11.08;55.73
69281;SHT31;56392;51.082;17.080;2023-05-10T00:28:17;11.01;55.64
69281;SHT31;56392;51.082;17.080;2023-05-10T00:33:40;10.97;55.89
69281;SHT31;56392;51.082;17.080;2023-05-10T00:39:03;10.90;56.14
69281;SHT31;56392;51.082;17.080;2023-05-10T00:44:27;10.88;56.29
69281;SHT31;56392;51.082;17.080;2023-05-10T00:49:51;10.76;56.89
69281;SHT31;56392;51.082;17.080;2023-05-10T00:55:14;10.76;56.78
69281;SHT31;56392;51.082;17.080;2023-05-10T01:00:41;10.78;57.09
69281;SHT31;56392;51.082;17.080;2023-05-10T01:06:05;10.68;57.48
69281;SHT31;56392;51.082;17.080;2023-05-10T01:11:28;10.61;57.40
69281;SHT31;56392;51.082;17.080;2023-05-10T01:16:53;10.57;57.79
69281;SHT31;56392;51.082;17.080;2023-05-10T01:22:36;10.55;57.84
69281;SHT31;56392;51.082;17.080;2023-05-10T01:28:21;10.45;58.27
69281;SHT31;56392;51.082;17.080;2023-05-10T01:33:56;10.37;58.39
69281;SHT31;56392;51.082;17.080;2023-05-10T01:39:25;10.33;58.78
69281;SHT31;56392;51.082;17.080;2023-05-10T01:44:56;10.30;58.79
69281;SHT31;56392;51.082;17.080;2023-05-10T01:50:27;10.32;59.02
69281;SHT31;56392;51.082;17.080;2023-05-10T01:55:53;10.23;59.26
69281;SHT31;56392;51.082;17.080;2023-05-10T02:01:19;10.13;59.49
69281;SHT31;56392;51.082;17.080;2023-05-10T02:06:45;10.16;59.35
69281;SHT31;56392;51.082;17.080;2023-05-10T02:12:09;10.16;59.50
69281;SHT31;56392;51.082;17.080;2023-05-10T02:17:35;10.16;59.27
69281;SHT31;56392;51.082;17.080;2023-05-10T02:23:03;10.08;59.68
69281;SHT31;56392;51.082;17.080;2023-05-10T02:28:26;9.96;60.18
69281;SHT31;56392;51.082;17.080;2023-05-10T02:33:51;9.94;60.04
69281;SHT31;56392;51.082;17.080;2023-05-10T02:39:16;9.92;60.25
69281;SHT31;56392;51.082;17.080;2023-05-10T02:44:42;9.84;60.78
69281;SHT31;56392;51.082;17.080;2023-05-10T02:50:06;9.77;60.94
69281;SHT31;56392;51.082;17.080;2023-05-10T02:55:35;9.71;61.31
69281;SHT31;56392;51.082;17.080;2023-05-10T03:00:59;9.64;61.31
69281;SHT31;56392;51.082;17.080;2023-05-10T03:06:23;9.64;61.42
69281;SHT31;56392;51.082;17.080;2023-05-10T03:11:59;9.67;61.14
69281;SHT31;56392;51.082;17.080;2023-05-10T03:17:28;9.61;61.33
69281;SHT31;56392;51.082;17.080;2023-05-10T03:22:55;9.65;61.30
69281;SHT31;56392;51.082;17.080;2023-05-10T03:28:21;9.64;61.21
69281;SHT31;56392;51.082;17.080;2023-05-10T03:33:48;9.62;61.14
69281;SHT31;56392;51.082;17.080;2023-05-10T03:39:10;9.64;61.31
69281;SHT31;56392;51.082;17.080;2023-05-10T03:44:35;9.64;61.15
69281;SHT31;56392;51.082;17.080;2023-05-10T03:49:58;9.70;60.91
69281;SHT31;56392;51.082;17.080;2023-05-10T03:55:21;9.70;61.05
69281;SHT31;56392;51.082;17.080;2023-05-10T04:00:46;9.71;61.43
69281;SHT31;56392;51.082;17.080;2023-05-10T04:06:09;9.81;60.32
69281;SHT31;56392;51.082;17.080;2023-05-10T04:11:33;9.88;60.08
69281;SHT31;56392;51.082;17.080;2023-05-10T04:16:57;9.94;59.86
69281;SHT31;56392;51.082;17.080;2023-05-10T04:22:21;10.01;59.91
69281;SHT31;56392;51.082;17.080;2023-05-10T04:27:44;10.03;59.48
69281;SHT31;56392;51.082;17.080;2023-05-10T04:33:08;10.09;59.43
69281;SHT31;56392;51.082;17.080;2023-05-10T04:38:31;10.15;59.34
69281;SHT31;56392;51.082;17.080;2023-05-10T04:43:54;10.20;59.66
69281;SHT31;56392;51.082;17.080;2023-05-10T04:49:19;10.30;59.19
69281;SHT31;56392;51.082;17.080;2023-05-10T04:54:42;10.45;59.19
69281;SHT31;56392;51.082;17.080;2023-05-10T05:00:06;10.63;58.67
69281;SHT31;56392;51.082;17.080;2023-05-10T05:05:31;10.91;58.35
69281;SHT31;56392;51.082;17.080;2023-05-10T05:10:54;11.29;58.19
69281;SHT31;56392;51.082;17.080;2023-05-10T05:16:17;11.65;56.93
69281;SHT31;56392;51.082;17.080;2023-05-10T05:21:42;12.04;55.71
69281;SHT31;56392;51.082;17.080;2023-05-10T05:27:05;12.40;55.05
69281;SHT31;56392;51.082;17.080;2023-05-10T05:32:28;12.75;54.52
69281;SHT31;56392;51.082;17.080;2023-05-10T05:37:53;13.12;53.39
69281;SHT31;56392;51.082;17.080;2023-05-10T05:43:17;13.43;52.58
69281;SHT31;56392;51.082;17.080;2023-05-10T05:48:40;13.67;52.23
69281;SHT31;56392;51.082;17.080;2023-05-10T05:54:04;13.94;51.84
69281;SHT31;56392;51.082;17.080;2023-05-10T05:59:28;14.22;51.82
69281;SHT31;56392;51.082;17.080;2023-05-10T06:04:51;14.56;51.45
69281;SHT31;56392;51.082;17.080;2023-05-10T06:10:15;14.93;50.29
69281;SHT31;56392;51.082;17.080;2023-05-10T06:15:38;15.23;49.82
69281;SHT31;56392;51.082;17.080;2023-05-10T06:21:01;15.48;49.50
69281;SHT31;56392;51.082;17.080;2023-05-10T06:26:25;15.55;49.59
69281;SHT31;56392;51.082;17.080;2023-05-10T06:31:48;15.85;49.06
69281;SHT31;56392;51.082;17.080;2023-05-10T06:37:11;16.26;48.82
69281;SHT31;56392;51.082;17.080;2023-05-10T06:42:36;16.44;47.07
69281;SHT31;56392;51.082;17.080;2023-05-10T06:47:59;16.65;47.48
69281;SHT31;56392;51.082;17.080;2023-05-10T06:53:22;16.91;46.71
69281;SHT31;56392;51.082;17.080;2023-05-10T06:58:47;17.12;45.54
69281;SHT31;56392;51.082;17.080;2023-05-10T07:04:10;17.23;45.84
69281;SHT31;56392;51.082;17.080;2023-05-10T07:09:33;17.38;45.48
69281;SHT31;56392;51.082;17.080;2023-05-10T07:14:57;17.45;45.31
69281;SHT31;56392;51.082;17.080;2023-05-10T07:20:20;17.59;44.77
69281;SHT31;56392;51.082;17.080;2023-05-10T07:25:44;17.66;45.20
69281;SHT31;56392;51.082;17.080;2023-05-10T07:31:09;17.91;45.27
69281;SHT31;56392;51.082;17.080;2023-05-10T07:36:32;18.20;45.00
69281;SHT31;56392;51.082;17.080;2023-05-10T07:41:55;18.41;44.57
69281;SHT31;56392;51.082;17.080;2023-05-10T07:47:20;18.62;44.72
69281;SHT31;56392;51.082;17.080;2023-05-10T07:52:43;18.68;43.39
69281;SHT31;56392;51.082;17.080;2023-05-10T07:58:06;18.89;43.65
69281;SHT31;56392;51.082;17.080;2023-05-10T08:03:30;18.86;42.35
69281;SHT31;56392;51.082;17.080;2023-05-10T08:08:53;18.88;43.18
69281;SHT31;56392;51.082;17.080;2023-05-10T08:14:17;18.99;43.19
69281;SHT31;56392;51.082;17.080;2023-05-10T08:19:41;19.07;43.47
69281;SHT31;56392;51.082;17.080;2023-05-10T08:25:05;19.06;42.48
69281;SHT31;56392;51.082;17.080;2023-05-10T08:30:29;19.06;42.37
69281;SHT31;56392;51.082;17.080;2023-05-10T08:35:53;19.12;43.21
69281;SHT31;56392;51.082;17.080;2023-05-10T08:41:16;19.38;42.62
69281;SHT31;56392;51.082;17.080;2023-05-10T08:46:40;19.55;42.65
69281;SHT31;56392;51.082;17.080;2023-05-10T08:52:07;19.74;42.66
69281;SHT31;56392;51.082;17.080;2023-05-10T08:57:30;19.89;42.57
69281;SHT31;56392;51.082;17.080;2023-05-10T09:02:54;20.15;41.97
69281;SHT31;56392;51.082;17.080;2023-05-10T09:08:19;20.18;41.95
69281;SHT31;56392;51.082;17.080;2023-05-10T09:13:42;20.14;41.32
69281;SHT31;56392;51.082;17.080;2023-05-10T09:19:06;20.11;42.03
69281;SHT31;56392;51.082;17.080;2023-05-10T09:24:31;20.24;41.69
69281;SHT31;56392;51.082;17.080;2023-05-10T09:29:54;20.33;42.49
69281;SHT31;56392;51.082;17.080;2023-05-10T09:35:19;20.43;41.69
69281;SHT31;56392;51.082;17.080;2023-05-10T09:40:51;20.45;41.35
69281;SHT31;56392;51.082;17.080;2023-05-10T09:46:16;20.57;42.01
69281;SHT31;56392;51.082;17.080;2023-05-10T09:51:39;20.88;41.32
69281;SHT31;56392;51.082;17.080;2023-05-10T09:57:04;20.66;40.52
69281;SHT31;56392;51.082;17.080;2023-05-10T10:02:28;20.76;40.88
69281;SHT31;56392;51.082;17.080;2023-05-10T10:07:51;20.77;39.63
69281;SHT31;56392;51.082;17.080;2023-05-10T10:13:16;20.90;39.87
69281;SHT31;56392;51.082;17.080;2023-05-10T10:18:39;20.87;40.00
69281;SHT31;56392;51.082;17.080;2023-05-10T10:24:03;20.76;40.65
69281;SHT31;56392;51.082;17.080;2023-05-10T10:29:35;20.80;40.81
69281;SHT31;56392;51.082;17.080;2023-05-10T10:34:59;20.90;40.06
69281;SHT31;56392;51.082;17.080;2023-05-10T10:40:24;20.87;39.87
69281;SHT31;56392;51.082;17.080;2023-05-10T10:46:09;20.72;39.63
69281;SHT31;56392;51.082;17.080;2023-05-10T10:51:33;20.76;40.18
69281;SHT31;56392;51.082;17.080;2023-05-10T10:57:20;20.94;40.23
69281;SHT31;56392;51.082;17.080;2023-05-10T11:02:47;20.87;40.97
69281;SHT31;56392;51.082;17.080;2023-05-10T11:08:16;20.81;39.42
69281;SHT31;56392;51.082;17.080;2023-05-10T11:13:40;20.57;40.44
69281;SHT31;56392;51.082;17.080;2023-05-10T11:19:07;20.62;40.28
69281;SHT31;56392;51.082;17.080;2023-05-10T11:24:31;20.72;39.82
69281;SHT31;56392;51.082;17.080;2023-05-10T11:29:55;20.69;39.59
69281;SHT31;56392;51.082;17.080;2023-05-10T11:35:19;20.62;40.75
69281;SHT31;56392;51.082;17.080;2023-05-10T11:40:42;20.52;40.39
69281;SHT31;56392;51.082;17.080;2023-05-10T11:46:06;20.45;40.62
69281;SHT31;56392;51.082;17.080;2023-05-10T11:51:33;20.40;40.34
69281;SHT31;56392;51.082;17.080;2023-05-10T11:56:57;20.45;40.25
69281;SHT31;56392;51.082;17.080;2023-05-10T12:02:20;20.43;39.83
69281;SHT31;56392;51.082;17.080;2023-05-10T12:07:44;20.49;40.10
69281;SHT31;56392;51.082;17.080;2023-05-10T12:13:11;20.33;40.85
69281;SHT31;56392;51.082;17.080;2023-05-10T12:18:38;20.29;39.80
69281;SHT31;56392;51.082;17.080;2023-05-10T12:24:04;20.15;40.42
69281;SHT31;56392;51.082;17.080;2023-05-10T12:29:30;20.21;39.74
69281;SHT31;56392;51.082;17.080;2023-05-10T12:34:53;20.16;40.46
69281;SHT31;56392;51.082;17.080;2023-05-10T12:40:17;20.29;40.28
69281;SHT31;56392;51.082;17.080;2023-05-10T12:45:40;20.40;40.55
69281;SHT31;56392;51.082;17.080;2023-05-10T12:51:04;20.40;39.61
69281;SHT31;56392;51.082;17.080;2023-05-10T12:56:32;20.47;38.83
69281;SHT31;56392;51.082;17.080;2023-05-10T13:01:57;20.52;39.43
69281;SHT31;56392;51.082;17.080;2023-05-10T13:07:21;20.46;39.25
69281;SHT31;56392;51.082;17.080;2023-05-10T13:12:45;20.35;39.22
69281;SHT31;56392;51.082;17.080;2023-05-10T13:18:09;20.30;38.27
69281;SHT31;56392;51.082;17.080;2023-05-10T13:23:32;20.18;38.13
69281;SHT31;56392;51.082;17.080;2023-05-10T13:28:56;20.21;38.58
69281;SHT31;56392;51.082;17.080;2023-05-10T13:34:19;20.21;38.83
69281;SHT31;56392;51.082;17.080;2023-05-10T13:39:43;20.22;38.66
69281;SHT31;56392;51.082;17.080;2023-05-10T13:45:08;20.22;38.68
69281;SHT31;56392;51.082;17.080;2023-05-10T13:50:33;20.22;38.96
69281;SHT31;56392;51.082;17.080;2023-05-10T13:55:56;20.29;38.60
69281;SHT31;56392;51.082;17.080;2023-05-10T14:01:21;20.33;38.95
69281;SHT31;56392;51.082;17.080;2023-05-10T14:06:44;20.33;38.92
69281;SHT31;56392;51.082;17.080;2023-05-10T14:12:08;20.24;38.90
69281;SHT31;56392;51.082;17.080;2023-05-10T14:17:32;20.26;38.73
69281;SHT31;56392;51.082;17.080;2023-05-10T14:22:55;20.25;38.69
69281;SHT31;56392;51.082;17.080;2023-05-10T14:28:18;20.24;38.33
69281;SHT31;56392;51.082;17.080;2023-05-10T14:33:43;20.24;37.64
69281;SHT31;56392;51.082;17.080;2023-05-10T14:39:06;20.18;38.99
69281;SHT31;56392;51.082;17.080;2023-05-10T14:44:31;20.19;38.12
69281;SHT31;56392;51.082;17.080;2023-05-10T14:49:56;20.22;38.39
69281;SHT31;56392;51.082;17.080;2023-05-10T14:55:19;20.21;37.62
69281;SHT31;56392;51.082;17.080;2023-05-10T15:00:43;20.18;37.76
69281;SHT31;56392;51.082;17.080;2023-05-10T15:06:09;20.21;37.53
69281;SHT31;56392;51.082;17.080;2023-05-10T15:11:32;20.22;37.99
69281;SHT31;56392;51.082;17.080;2023-05-10T15:16:55;20.22;37.36
69281;SHT31;56392;51.082;17.080;2023-05-10T15:22:20;20.24;37.48
69281;SHT31;56392;51.082;17.080;2023-05-10T15:27:44;20.19;37.27
69281;SHT31;56392;51.082;17.080;2023-05-10T15:33:07;20.21;37.25
69281;SHT31;56392;51.082;17.080;2023-05-10T15:38:33;20.19;37.78
69281;SHT31;56392;51.082;17.080;2023-05-10T15:43:59;20.18;38.40
69281;SHT31;56392;51.082;17.080;2023-05-10T15:49:23;20.15;38.16
69281;SHT31;56392;51.082;17.080;2023-05-10T15:54:48;20.16;38.35
69281;SHT31;56392;51.082;17.080;2023-05-10T16:00:13;20.11;38.02
69281;SHT31;56392;51.082;17.080;2023-05-10T16:05:37;20.08;38.74
69281;SHT31;56392;51.082;17.080;2023-05-10T16:11:02;20.08;38.90
69281;SHT31;56392;51.082;17.080;2023-05-10T16:16:28;20.06;37.96
69281;SHT31;56392;51.082;17.080;2023-05-10T16:21:54;20.16;38.40
69281;SHT31;56392;51.082;17.080;2023-05-10T16:27:20;20.18;38.15
69281;SHT31;56392;51.082;17.080;2023-05-10T16:32:45;20.22;38.66
69281;SHT31;56392;51.082;17.080;2023-05-10T16:38:09;20.22;38.87
69281;SHT31;56392;51.082;17.080;2023-05-10T16:43:34;20.21;39.18
69281;SHT31;56392;51.082;17.080;2023-05-10T16:48:58;20.14;39.34
69281;SHT31;56392;51.082;17.080;2023-05-10T16:54:21;20.09;39.75
69281;SHT31;56392;51.082;17.080;2023-05-10T16:59:46;20.12;40.66
69281;SHT31;56392;51.082;17.080;2023-05-10T17:05:10;20.11;41.29
69281;SHT31;56392;51.082;17.080;2023-05-10T17:10:34;20.04;40.87
69281;SHT31;56392;51.082;17.080;2023-05-10T17:16:00;19.94;40.70
69281;SHT31;56392;51.082;17.080;2023-05-10T17:21:25;19.89;41.28
69281;SHT31;56392;51.082;17.080;2023-05-10T17:26:49;19.82;41.70
69281;SHT31;56392;51.082;17.080;2023-05-10T17:32:14;19.78;42.06
69281;SHT31;56392;51.082;17.080;2023-05-10T17:37:37;19.65;42.52
69281;SHT31;56392;51.082;17.080;2023-05-10T17:43:00;19.57;43.19
69281;SHT31;56392;51.082;17.080;2023-05-10T17:48:25;19.44;44.50
69281;SHT31;56392;51.082;17.080;2023-05-10T17:53:48;19.41;45.22
69281;SHT31;56392;51.082;17.080;2023-05-10T17:59:11;19.30;46.91
69281;SHT31;56392;51.082;17.080;2023-05-10T18:04:38;19.09;48.22
69281;SHT31;56392;51.082;17.080;2023-05-10T18:10:01;18.92;49.12
69281;SHT31;56392;51.082;17.080;2023-05-10T18:15:26;18.73;50.20
69281;SHT31;56392;51.082;17.080;2023-05-10T18:20:51;18.56;51.14
69281;SHT31;56392;51.082;17.080;2023-05-10T18:26:17;18.44;51.60
69281;SHT31;56392;51.082;17.080;2023-05-10T18:31:40;18.25;52.20
69281;SHT31;56392;51.082;17.080;2023-05-10T18:37:05;18.18;51.86
69281;SHT31;56392;51.082;17.080;2023-05-10T18:42:29;18.15;52.09
69281;SHT31;56392;51.082;17.080;2023-05-10T18:47:52;18.15;52.71
69281;SHT31;56392;51.082;17.080;2023-05-10T18:53:18;18.10;54.46
69281;SHT31;56392;51.082;17.080;2023-05-10T18:58:41;17.87;56.17
69281;SHT31;56392;51.082;17.080;2023-05-10T19:04:04;17.74;56.38
69281;SHT31;56392;51.082;17.080;2023-05-10T19:09:30;17.56;57.29
69281;SHT31;56392;51.082;17.080;2023-05-10T19:14:54;17.39;56.74
69281;SHT31;56392;51.082;17.080;2023-05-10T19:20:17;17.22;57.68
69281;SHT31;56392;51.082;17.080;2023-05-10T19:25:43;17.21;55.78
69281;SHT31;56392;51.082;17.080;2023-05-10T19:31:06;17.26;55.43
69281;SHT31;56392;51.082;17.080;2023-05-10T19:36:29;17.15;56.65
69281;SHT31;56392;51.082;17.080;2023-05-10T19:41:54;17.07;57.93
69281;SHT31;56392;51.082;17.080;2023-05-10T19:47:17;16.92;57.97
69281;SHT31;56392;51.082;17.080;2023-05-10T19:52:40;16.74;58.84
69281;SHT31;56392;51.082;17.080;2023-05-10T19:58:04;16.59;58.66
69281;SHT31;56392;51.082;17.080;2023-05-10T20:03:27;16.47;59.31
69281;SHT31;56392;51.082;17.080;2023-05-10T20:08:50;16.36;57.59
69281;SHT31;56392;51.082;17.080;2023-05-10T20:14:16;16.33;56.87
69281;SHT31;56392;51.082;17.080;2023-05-10T20:19:39;16.36;56.51
69281;SHT31;56392;51.082;17.080;2023-05-10T20:25:02;16.32;56.14
69281;SHT31;56392;51.082;17.080;2023-05-10T20:30:28;16.34;56.15
69281;SHT31;56392;51.082;17.080;2023-05-10T20:35:51;16.30;57.49
69281;SHT31;56392;51.082;17.080;2023-05-10T20:41:14;16.13;59.48
69281;SHT31;56392;51.082;17.080;2023-05-10T20:46:38;16.03;60.05
69281;SHT31;56392;51.082;17.080;2023-05-10T20:52:01;16.02;59.21
69281;SHT31;56392;51.082;17.080;2023-05-10T20:57:25;16.08;58.34
69281;SHT31;56392;51.082;17.080;2023-05-10T21:02:49;16.12;57.71
69281;SHT31;56392;51.082;17.080;2023-05-10T21:08:12;16.08;56.07
69281;SHT31;56392;51.082;17.080;2023-05-10T21:13:35;16.09;55.64
69281;SHT31;56392;51.082;17.080;2023-05-10T21:18:59;16.13;55.58
69281;SHT31;56392;51.082;17.080;2023-05-10T21:24:22;16.12;56.64
69281;SHT31;56392;51.082;17.080;2023-05-10T21:29:46;16.12;56.04
69281;SHT31;56392;51.082;17.080;2023-05-10T21:35:10;16.08;56.83
69281;SHT31;56392;51.082;17.080;2023-05-10T21:40:33;16.05;55.40
69281;SHT31;56392;51.082;17.080;2023-05-10T21:45:56;16.02;56.65
69281;SHT31;56392;51.082;17.080;2023-05-10T21:51:21;15.88;58.36
69281;SHT31;56392;51.082;17.080;2023-05-10T21:56:43;15.83;57.01
69281;SHT31;56392;51.082;17.080;2023-05-10T22:02:06;15.83;55.23
69281;SHT31;56392;51.082;17.080;2023-05-10T22:07:31;15.79;54.41
69281;SHT31;56392;51.082;17.080;2023-05-10T22:12:54;15.72;53.65
69281;SHT31;56392;51.082;17.080;2023-05-10T22:18:17;15.65;53.20
69281;SHT31;56392;51.082;17.080;2023-05-10T22:23:42;15.59;53.12
69281;SHT31;56392;51.082;17.080;2023-05-10T22:29:05;15.58;52.99
69281;SHT31;56392;51.082;17.080;2023-05-10T22:34:28;15.59;52.73
69281;SHT31;56392;51.082;17.080;2023-05-10T22:39:52;15.59;52.61
69281;SHT31;56392;51.082;17.080;2023-05-10T22:45:15;15.57;52.53
69281;SHT31;56392;51.082;17.080;2023-05-10T22:50:38;15.59;52.60
69281;SHT31;56392;51.082;17.080;2023-05-10T22:56:03;15.62;53.39
69281;SHT31;56392;51.082;17.080;2023-05-10T23:01:26;15.61;53.48
69281;SHT31;56392;51.082;17.080;2023-05-10T23:06:50;15.58;52.74
69281;SHT31;56392;51.082;17.080;2023-05-10T23:12:15;15.55;52.44
69281;SHT31;56392;51.082;17.080;2023-05-10T23:17:38;15.42;52.25
69281;SHT31;56392;51.082;17.080;2023-05-10T23:23:01;15.37;52.18
69281;SHT31;56392;51.082;17.080;2023-05-10T23:28:26;15.20;52.18
69281;SHT31;56392;51.082;17.080;2023-05-10T23:33:49;15.11;52.33
69281;SHT31;56392;51.082;17.080;2023-05-10T23:39:12;15.03;52.42
69281;SHT31;56392;51.082;17.080;2023-05-10T23:44:36;14.96;52.45
69281;SHT31;56392;51.082;17.080;2023-05-10T23:50:00;14.87;52.63
69281;SHT31;56392;51.082;17.080;2023-05-10T23:55:23;14.84;52.65
